sensor_id;sensor_type;location;lat;lon;timestamp;P1;durP1;ratioP1;P2;durP2;ratioP2
40339;SDS011;26044;50.864;20.658;2022-12-24T00:00:06;159.98;;;55.50;;
40339;SDS011;26044;50.864;20.658;2022-12-24T00:02:38;164.98;;;55.53;;
40339;SDS011;26044;50.864;20.658;2022-12-24T00:05:05;173.73;;;60.33;;
40339;SDS011;26044;50.864;20.658;2022-12-24T00:07:53;166.30;;;57.17;;
40339;SDS011;26044;50.864;20.658;2022-12-24T00:10:22;173.52;;;59.88;;
40339;SDS011;26044;50.864;20.658;2022-12-24T00:13:02;160.98;;;57.38;;
40339;SDS011;26044;50.864;20.658;2022-12-24T00:16:06;172.07;;;57.67;;
40339;SDS011;26044;50.864;20.658;2022-12-24T00:19:07;184.45;;;63.20;;
40339;SDS011;26044;50.864;20.658;2022-12-24T00:22:00;198.30;;;66.65;;
40339;SDS011;26044;50.864;20.658;2022-12-24T00:24:32;201.40;;;72.47;;
40339;SDS011;26044;50.864;20.658;2022-12-24T00:27:31;184.32;;;68.43;;
40339;SDS011;26044;50.864;20.658;2022-12-24T00:30:18;233.45;;;76.30;;
40339;SDS011;26044;50.864;20.658;2022-12-24T00:33:20;222.70;;;73.28;;
40339;SDS011;26044;50.864;20.658;2022-12-24T00:36:01;248.43;;;74.78;;
40339;SDS011;26044;50.864;20.658;2022-12-24T00:38:47;275.65;;;82.25;;
40339;SDS011;26044;50.864;20.658;2022-12-24T00:41:23;285.52;;;80.90;;
40339;SDS011;26044;50.864;20.658;2022-12-24T00:43:55;281.55;;;80.07;;
40339;SDS011;26044;50.864;20.658;2022-12-24T00:46:32;299.13;;;83.20;;
40339;SDS011;26044;50.864;20.658;2022-12-24T00:49:13;276.27;;;84.90;;
40339;SDS011;26044;50.864;20.658;2022-12-24T00:52:13;284.27;;;84.57;;
40339;SDS011;26044;50.864;20.658;2022-12-24T00:54:49;294.67;;;89.57;;
40339;SDS011;26044;50.864;20.658;2022-12-24T01:00:10;273.17;;;80.97;;
40339;SDS011;26044;50.864;20.658;2022-12-24T01:05:49;244.27;;;76.93;;
40339;SDS011;26044;50.864;20.658;2022-12-24T01:08:28;245.70;;;78.20;;
40339;SDS011;26044;50.864;20.658;2022-12-24T01:11:14;216.43;;;74.85;;
40339;SDS011;26044;50.864;20.658;2022-12-24T01:13:45;218.90;;;74.30;;
40339;SDS011;26044;50.864;20.658;2022-12-24T01:16:14;227.57;;;69.72;;
40339;SDS011;26044;50.864;20.658;2022-12-24T01:18:46;243.00;;;74.78;;
40339;SDS011;26044;50.864;20.658;2022-12-24T01:21:13;225.10;;;75.22;;
40339;SDS011;26044;50.864;20.658;2022-12-24T01:23:42;239.45;;;76.63;;
40339;SDS011;26044;50.864;20.658;2022-12-24T01:26:12;218.95;;;71.40;;
40339;SDS011;26044;50.864;20.658;2022-12-24T01:28:39;239.82;;;74.40;;
40339;SDS011;26044;50.864;20.658;2022-12-24T01:31:14;195.52;;;69.60;;
40339;SDS011;26044;50.864;20.658;2022-12-24T01:33:44;192.63;;;70.40;;
40339;SDS011;26044;50.864;20.658;2022-12-24T01:36:12;207.80;;;69.15;;
40339;SDS011;26044;50.864;20.658;2022-12-24T01:38:45;212.10;;;72.85;;
40339;SDS011;26044;50.864;20.658;2022-12-24T01:41:21;212.18;;;72.20;;
40339;SDS011;26044;50.864;20.658;2022-12-24T01:46:46;219.55;;;77.35;;
40339;SDS011;26044;50.864;20.658;2022-12-24T01:49:15;232.30;;;78.40;;
40339;SDS011;26044;50.864;20.658;2022-12-24T01:51:47;210.65;;;75.47;;
40339;SDS011;26044;50.864;20.658;2022-12-24T01:54:25;206.93;;;73.80;;
40339;SDS011;26044;50.864;20.658;2022-12-24T01:57:04;197.93;;;69.93;;
40339;SDS011;26044;50.864;20.658;2022-12-24T01:59:35;193.82;;;66.95;;
40339;SDS011;26044;50.864;20.658;2022-12-24T02:02:03;217.10;;;72.55;;
40339;SDS011;26044;50.864;20.658;2022-12-24T02:04:41;192.90;;;72.38;;
40339;SDS011;26044;50.864;20.658;2022-12-24T02:07:15;189.15;;;73.65;;
40339;SDS011;26044;50.864;20.658;2022-12-24T02:09:42;216.88;;;78.32;;
40339;SDS011;26044;50.864;20.658;2022-12-24T02:12:13;200.55;;;76.13;;
40339;SDS011;26044;50.864;20.658;2022-12-24T02:14:40;184.90;;;75.07;;
40339;SDS011;26044;50.864;20.658;2022-12-24T02:28:02;198.52;;;75.65;;
40339;SDS011;26044;50.864;20.658;2022-12-24T02:30:51;204.07;;;75.10;;
40339;SDS011;26044;50.864;20.658;2022-12-24T02:35:59;181.30;;;65.60;;
40339;SDS011;26044;50.864;20.658;2022-12-24T02:41:38;171.80;;;63.38;;
40339;SDS011;26044;50.864;20.658;2022-12-24T02:44:48;135.45;;;52.75;;
40339;SDS011;26044;50.864;20.658;2022-12-24T02:47:23;120.13;;;49.20;;
40339;SDS011;26044;50.864;20.658;2022-12-24T02:49:59;116.60;;;47.63;;
40339;SDS011;26044;50.864;20.658;2022-12-24T02:52:31;116.18;;;47.53;;
40339;SDS011;26044;50.864;20.658;2022-12-24T02:55:14;115.65;;;47.10;;
40339;SDS011;26044;50.864;20.658;2022-12-24T03:00:27;117.90;;;45.30;;
40339;SDS011;26044;50.864;20.658;2022-12-24T03:06:12;121.53;;;50.53;;
40339;SDS011;26044;50.864;20.658;2022-12-24T03:09:00;119.80;;;48.17;;
40339;SDS011;26044;50.864;20.658;2022-12-24T03:11:41;117.88;;;49.53;;
40339;SDS011;26044;50.864;20.658;2022-12-24T03:14:11;116.70;;;48.95;;
40339;SDS011;26044;50.864;20.658;2022-12-24T03:16:40;127.67;;;50.27;;
40339;SDS011;26044;50.864;20.658;2022-12-24T03:21:38;122.65;;;48.47;;
40339;SDS011;26044;50.864;20.658;2022-12-24T03:24:12;124.63;;;49.53;;
40339;SDS011;26044;50.864;20.658;2022-12-24T03:26:46;123.25;;;48.78;;
40339;SDS011;26044;50.864;20.658;2022-12-24T03:29:34;113.95;;;47.42;;
40339;SDS011;26044;50.864;20.658;2022-12-24T03:32:27;114.40;;;48.45;;
40339;SDS011;26044;50.864;20.658;2022-12-24T03:35:00;112.90;;;46.35;;
40339;SDS011;26044;50.864;20.658;2022-12-24T03:37:36;117.13;;;48.95;;
40339;SDS011;26044;50.864;20.658;2022-12-24T03:40:05;109.18;;;46.05;;
40339;SDS011;26044;50.864;20.658;2022-12-24T03:42:35;100.38;;;42.75;;
40339;SDS011;26044;50.864;20.658;2022-12-24T03:45:02;105.72;;;44.08;;
40339;SDS011;26044;50.864;20.658;2022-12-24T03:47:29;103.55;;;42.22;;
40339;SDS011;26044;50.864;20.658;2022-12-24T03:49:56;110.95;;;44.75;;
40339;SDS011;26044;50.864;20.658;2022-12-24T03:52:23;103.60;;;44.33;;
40339;SDS011;26044;50.864;20.658;2022-12-24T03:54:50;101.68;;;43.92;;
40339;SDS011;26044;50.864;20.658;2022-12-24T03:57:18;92.78;;;39.65;;
40339;SDS011;26044;50.864;20.658;2022-12-24T03:59:45;91.18;;;39.40;;
40339;SDS011;26044;50.864;20.658;2022-12-24T04:02:12;104.63;;;43.05;;
40339;SDS011;26044;50.864;20.658;2022-12-24T04:04:39;104.32;;;43.45;;
40339;SDS011;26044;50.864;20.658;2022-12-24T04:07:06;103.38;;;41.95;;
40339;SDS011;26044;50.864;20.658;2022-12-24T04:09:33;101.55;;;41.30;;
40339;SDS011;26044;50.864;20.658;2022-12-24T04:12:00;109.90;;;43.65;;
40339;SDS011;26044;50.864;20.658;2022-12-24T04:14:28;109.72;;;45.75;;
40339;SDS011;26044;50.864;20.658;2022-12-24T04:17:01;102.18;;;39.15;;
40339;SDS011;26044;50.864;20.658;2022-12-24T04:19:40;109.00;;;42.67;;
40339;SDS011;26044;50.864;20.658;2022-12-24T04:22:16;130.88;;;49.92;;
40339;SDS011;26044;50.864;20.658;2022-12-24T04:24:44;140.13;;;54.50;;
40339;SDS011;26044;50.864;20.658;2022-12-24T04:27:15;140.18;;;55.88;;
40339;SDS011;26044;50.864;20.658;2022-12-24T04:29:56;137.70;;;52.45;;
40339;SDS011;26044;50.864;20.658;2022-12-24T04:32:25;155.20;;;60.63;;
40339;SDS011;26044;50.864;20.658;2022-12-24T04:35:14;143.15;;;55.58;;
40339;SDS011;26044;50.864;20.658;2022-12-24T04:40:11;128.25;;;44.40;;
40339;SDS011;26044;50.864;20.658;2022-12-24T04:42:41;134.32;;;48.63;;
40339;SDS011;26044;50.864;20.658;2022-12-24T04:45:08;135.02;;;54.25;;
40339;SDS011;26044;50.864;20.658;2022-12-24T04:47:35;129.68;;;49.35;;
40339;SDS011;26044;50.864;20.658;2022-12-24T04:50:02;143.50;;;52.53;;
40339;SDS011;26044;50.864;20.658;2022-12-24T04:52:30;133.48;;;51.50;;
40339;SDS011;26044;50.864;20.658;2022-12-24T04:54:58;134.90;;;48.58;;
40339;SDS011;26044;50.864;20.658;2022-12-24T04:57:25;140.57;;;50.10;;
40339;SDS011;26044;50.864;20.658;2022-12-24T04:59:52;158.55;;;47.88;;
40339;SDS011;26044;50.864;20.658;2022-12-24T05:02:19;120.07;;;45.65;;
40339;SDS011;26044;50.864;20.658;2022-12-24T05:04:50;141.50;;;52.67;;
40339;SDS011;26044;50.864;20.658;2022-12-24T05:07:20;145.45;;;50.35;;
40339;SDS011;26044;50.864;20.658;2022-12-24T05:09:59;118.45;;;44.00;;
40339;SDS011;26044;50.864;20.658;2022-12-24T05:12:50;123.20;;;40.60;;
40339;SDS011;26044;50.864;20.658;2022-12-24T05:15:16;121.00;;;41.05;;
40339;SDS011;26044;50.864;20.658;2022-12-24T05:17:43;118.60;;;42.05;;
40339;SDS011;26044;50.864;20.658;2022-12-24T05:20:10;136.70;;;41.63;;
40339;SDS011;26044;50.864;20.658;2022-12-24T05:22:40;143.05;;;41.70;;
40339;SDS011;26044;50.864;20.658;2022-12-24T05:25:40;148.70;;;41.95;;
40339;SDS011;26044;50.864;20.658;2022-12-24T05:28:32;140.20;;;48.92;;
40339;SDS011;26044;50.864;20.658;2022-12-24T05:31:27;153.77;;;55.13;;
40339;SDS011;26044;50.864;20.658;2022-12-24T05:33:58;141.13;;;50.25;;
40339;SDS011;26044;50.864;20.658;2022-12-24T05:36:26;124.22;;;46.90;;
40339;SDS011;26044;50.864;20.658;2022-12-24T05:38:53;117.78;;;44.22;;
40339;SDS011;26044;50.864;20.658;2022-12-24T05:41:20;99.47;;;35.75;;
40339;SDS011;26044;50.864;20.658;2022-12-24T05:43:47;108.70;;;40.17;;
40339;SDS011;26044;50.864;20.658;2022-12-24T05:46:16;99.75;;;35.22;;
40339;SDS011;26044;50.864;20.658;2022-12-24T05:48:45;88.88;;;34.75;;
40339;SDS011;26044;50.864;20.658;2022-12-24T05:51:15;83.88;;;32.90;;
40339;SDS011;26044;50.864;20.658;2022-12-24T05:53:47;87.32;;;32.70;;
40339;SDS011;26044;50.864;20.658;2022-12-24T05:56:16;90.85;;;35.80;;
40339;SDS011;26044;50.864;20.658;2022-12-24T05:58:44;88.82;;;35.60;;
40339;SDS011;26044;50.864;20.658;2022-12-24T06:01:12;85.53;;;36.05;;
40339;SDS011;26044;50.864;20.658;2022-12-24T06:03:39;134.32;;;51.45;;
40339;SDS011;26044;50.864;20.658;2022-12-24T06:06:12;114.72;;;47.22;;
40339;SDS011;26044;50.864;20.658;2022-12-24T06:08:40;129.95;;;50.30;;
40339;SDS011;26044;50.864;20.658;2022-12-24T06:11:09;132.27;;;49.63;;
40339;SDS011;26044;50.864;20.658;2022-12-24T06:13:38;106.55;;;41.42;;
40339;SDS011;26044;50.864;20.658;2022-12-24T06:16:08;120.57;;;41.95;;
40339;SDS011;26044;50.864;20.658;2022-12-24T06:18:50;97.05;;;38.42;;
40339;SDS011;26044;50.864;20.658;2022-12-24T06:21:17;96.05;;;36.80;;
40339;SDS011;26044;50.864;20.658;2022-12-24T06:23:46;91.05;;;35.63;;
40339;SDS011;26044;50.864;20.658;2022-12-24T06:26:19;92.10;;;37.97;;
40339;SDS011;26044;50.864;20.658;2022-12-24T06:28:49;106.18;;;37.92;;
40339;SDS011;26044;50.864;20.658;2022-12-24T06:31:18;106.35;;;40.22;;
40339;SDS011;26044;50.864;20.658;2022-12-24T06:33:49;98.28;;;40.85;;
40339;SDS011;26044;50.864;20.658;2022-12-24T06:36:21;110.88;;;41.15;;
40339;SDS011;26044;50.864;20.658;2022-12-24T06:38:51;112.18;;;42.90;;
40339;SDS011;26044;50.864;20.658;2022-12-24T06:41:22;118.38;;;43.63;;
40339;SDS011;26044;50.864;20.658;2022-12-24T06:43:50;124.15;;;46.83;;
40339;SDS011;26044;50.864;20.658;2022-12-24T06:46:19;128.75;;;48.15;;
40339;SDS011;26044;50.864;20.658;2022-12-24T06:48:47;163.63;;;50.92;;
40339;SDS011;26044;50.864;20.658;2022-12-24T06:51:17;124.47;;;49.45;;
40339;SDS011;26044;50.864;20.658;2022-12-24T06:53:45;134.55;;;50.78;;
40339;SDS011;26044;50.864;20.658;2022-12-24T06:56:23;150.60;;;53.85;;
40339;SDS011;26044;50.864;20.658;2022-12-24T06:58:55;152.30;;;53.67;;
40339;SDS011;26044;50.864;20.658;2022-12-24T07:01:30;160.88;;;55.53;;
40339;SDS011;26044;50.864;20.658;2022-12-24T07:04:00;151.20;;;56.17;;
40339;SDS011;26044;50.864;20.658;2022-12-24T07:06:27;137.90;;;50.55;;
40339;SDS011;26044;50.864;20.658;2022-12-24T07:08:56;152.25;;;58.40;;
40339;SDS011;26044;50.864;20.658;2022-12-24T07:11:23;127.70;;;47.60;;
40339;SDS011;26044;50.864;20.658;2022-12-24T07:13:51;109.05;;;39.95;;
40339;SDS011;26044;50.864;20.658;2022-12-24T07:16:18;100.03;;;35.25;;
40339;SDS011;26044;50.864;20.658;2022-12-24T07:18:48;98.10;;;36.38;;
40339;SDS011;26044;50.864;20.658;2022-12-24T07:21:14;92.50;;;34.28;;
40339;SDS011;26044;50.864;20.658;2022-12-24T07:23:41;88.63;;;32.00;;
40339;SDS011;26044;50.864;20.658;2022-12-24T07:26:11;86.82;;;32.28;;
40339;SDS011;26044;50.864;20.658;2022-12-24T07:28:42;69.70;;;27.35;;
40339;SDS011;26044;50.864;20.658;2022-12-24T07:31:11;69.35;;;27.23;;
40339;SDS011;26044;50.864;20.658;2022-12-24T07:33:38;72.28;;;27.08;;
40339;SDS011;26044;50.864;20.658;2022-12-24T07:36:06;75.07;;;26.73;;
40339;SDS011;26044;50.864;20.658;2022-12-24T07:38:44;65.55;;;24.50;;
40339;SDS011;26044;50.864;20.658;2022-12-24T07:41:15;72.25;;;27.83;;
40339;SDS011;26044;50.864;20.658;2022-12-24T07:43:45;61.95;;;26.08;;
40339;SDS011;26044;50.864;20.658;2022-12-24T07:46:13;63.22;;;24.50;;
40339;SDS011;26044;50.864;20.658;2022-12-24T07:48:42;65.93;;;24.02;;
40339;SDS011;26044;50.864;20.658;2022-12-24T07:51:09;68.82;;;25.63;;
40339;SDS011;26044;50.864;20.658;2022-12-24T07:53:36;68.82;;;27.65;;
40339;SDS011;26044;50.864;20.658;2022-12-24T07:56:03;77.90;;;27.52;;
40339;SDS011;26044;50.864;20.658;2022-12-24T07:58:37;82.05;;;30.77;;
40339;SDS011;26044;50.864;20.658;2022-12-24T08:01:04;93.10;;;29.92;;
40339;SDS011;26044;50.864;20.658;2022-12-24T08:03:31;89.72;;;31.23;;
40339;SDS011;26044;50.864;20.658;2022-12-24T08:05:58;71.97;;;28.25;;
40339;SDS011;26044;50.864;20.658;2022-12-24T08:08:25;85.20;;;30.92;;
40339;SDS011;26044;50.864;20.658;2022-12-24T08:10:52;82.78;;;32.95;;
40339;SDS011;26044;50.864;20.658;2022-12-24T08:13:19;93.28;;;38.22;;
40339;SDS011;26044;50.864;20.658;2022-12-24T08:15:46;102.25;;;41.33;;
40339;SDS011;26044;50.864;20.658;2022-12-24T08:18:13;91.15;;;35.97;;
40339;SDS011;26044;50.864;20.658;2022-12-24T08:20:40;96.97;;;37.28;;
40339;SDS011;26044;50.864;20.658;2022-12-24T08:23:08;122.38;;;45.90;;
40339;SDS011;26044;50.864;20.658;2022-12-24T08:25:35;78.45;;;29.63;;
40339;SDS011;26044;50.864;20.658;2022-12-24T08:28:03;71.18;;;27.17;;
40339;SDS011;26044;50.864;20.658;2022-12-24T08:30:31;71.95;;;23.42;;
40339;SDS011;26044;50.864;20.658;2022-12-24T08:32:58;59.50;;;22.15;;
40339;SDS011;26044;50.864;20.658;2022-12-24T08:35:25;71.10;;;21.50;;
40339;SDS011;26044;50.864;20.658;2022-12-24T08:37:52;67.63;;;21.65;;
40339;SDS011;26044;50.864;20.658;2022-12-24T08:40:21;57.23;;;19.53;;
40339;SDS011;26044;50.864;20.658;2022-12-24T08:42:48;51.38;;;19.98;;
40339;SDS011;26044;50.864;20.658;2022-12-24T08:45:15;50.85;;;19.55;;
40339;SDS011;26044;50.864;20.658;2022-12-24T08:47:43;50.97;;;18.70;;
40339;SDS011;26044;50.864;20.658;2022-12-24T08:50:10;50.70;;;20.52;;
40339;SDS011;26044;50.864;20.658;2022-12-24T08:52:37;43.85;;;18.00;;
40339;SDS011;26044;50.864;20.658;2022-12-24T08:55:04;41.25;;;17.70;;
40339;SDS011;26044;50.864;20.658;2022-12-24T08:57:33;44.67;;;17.60;;
40339;SDS011;26044;50.864;20.658;2022-12-24T09:00:03;44.28;;;18.80;;
40339;SDS011;26044;50.864;20.658;2022-12-24T09:02:31;57.92;;;24.45;;
40339;SDS011;26044;50.864;20.658;2022-12-24T09:04:58;64.32;;;26.33;;
40339;SDS011;26044;50.864;20.658;2022-12-24T09:07:25;59.85;;;25.63;;
40339;SDS011;26044;50.864;20.658;2022-12-24T09:09:52;73.03;;;32.83;;
40339;SDS011;26044;50.864;20.658;2022-12-24T09:12:19;91.22;;;37.58;;
40339;SDS011;26044;50.864;20.658;2022-12-24T09:14:46;86.55;;;38.78;;
40339;SDS011;26044;50.864;20.658;2022-12-24T09:17:13;82.93;;;38.90;;
40339;SDS011;26044;50.864;20.658;2022-12-24T09:19:40;98.30;;;41.70;;
40339;SDS011;26044;50.864;20.658;2022-12-24T09:22:06;96.57;;;41.60;;
40339;SDS011;26044;50.864;20.658;2022-12-24T09:24:33;106.97;;;43.60;;
40339;SDS011;26044;50.864;20.658;2022-12-24T09:27:01;103.18;;;43.65;;
40339;SDS011;26044;50.864;20.658;2022-12-24T09:29:29;117.70;;;47.35;;
40339;SDS011;26044;50.864;20.658;2022-12-24T09:31:56;110.82;;;43.50;;
40339;SDS011;26044;50.864;20.658;2022-12-24T09:34:24;114.97;;;46.50;;
40339;SDS011;26044;50.864;20.658;2022-12-24T09:36:56;106.65;;;43.42;;
40339;SDS011;26044;50.864;20.658;2022-12-24T09:39:22;118.43;;;44.33;;
40339;SDS011;26044;50.864;20.658;2022-12-24T09:44:22;116.53;;;44.03;;
40339;SDS011;26044;50.864;20.658;2022-12-24T09:47:07;88.22;;;35.95;;
40339;SDS011;26044;50.864;20.658;2022-12-24T09:49:46;94.50;;;38.03;;
40339;SDS011;26044;50.864;20.658;2022-12-24T09:52:24;105.35;;;47.58;;
40339;SDS011;26044;50.864;20.658;2022-12-24T09:55:16;102.50;;;42.65;;
40339;SDS011;26044;50.864;20.658;2022-12-24T09:57:49;93.38;;;40.65;;
40339;SDS011;26044;50.864;20.658;2022-12-24T10:00:20;97.82;;;39.25;;
40339;SDS011;26044;50.864;20.658;2022-12-24T10:03:15;72.07;;;30.25;;
40339;SDS011;26044;50.864;20.658;2022-12-24T10:08:38;78.78;;;33.63;;
40339;SDS011;26044;50.864;20.658;2022-12-24T10:11:28;70.65;;;28.98;;
40339;SDS011;26044;50.864;20.658;2022-12-24T10:19:49;84.22;;;36.92;;
40339;SDS011;26044;50.864;20.658;2022-12-24T10:22:23;91.30;;;37.25;;
40339;SDS011;26044;50.864;20.658;2022-12-24T10:27:59;72.50;;;32.58;;
40339;SDS011;26044;50.864;20.658;2022-12-24T10:30:35;70.90;;;28.20;;
40339;SDS011;26044;50.864;20.658;2022-12-24T10:33:08;74.68;;;33.75;;
40339;SDS011;26044;50.864;20.658;2022-12-24T10:35:57;72.45;;;31.90;;
40339;SDS011;26044;50.864;20.658;2022-12-24T10:38:24;75.18;;;33.60;;
40339;SDS011;26044;50.864;20.658;2022-12-24T10:40:58;74.50;;;32.92;;
40339;SDS011;26044;50.864;20.658;2022-12-24T10:43:33;78.88;;;36.63;;
40339;SDS011;26044;50.864;20.658;2022-12-24T10:46:15;91.28;;;41.05;;
40339;SDS011;26044;50.864;20.658;2022-12-24T10:48:54;78.03;;;35.92;;
40339;SDS011;26044;50.864;20.658;2022-12-24T10:51:36;94.20;;;40.38;;
40339;SDS011;26044;50.864;20.658;2022-12-24T10:54:17;110.47;;;48.08;;
40339;SDS011;26044;50.864;20.658;2022-12-24T10:56:57;106.05;;;47.72;;
40339;SDS011;26044;50.864;20.658;2022-12-24T11:02:23;162.45;;;69.80;;
40339;SDS011;26044;50.864;20.658;2022-12-24T11:04:56;171.55;;;77.95;;
40339;SDS011;26044;50.864;20.658;2022-12-24T11:07:31;203.32;;;82.43;;
40339;SDS011;26044;50.864;20.658;2022-12-24T11:10:04;192.93;;;78.82;;
40339;SDS011;26044;50.864;20.658;2022-12-24T11:12:39;174.35;;;71.90;;
40339;SDS011;26044;50.864;20.658;2022-12-24T11:15:32;183.18;;;69.88;;
40339;SDS011;26044;50.864;20.658;2022-12-24T11:18:03;181.45;;;72.13;;
40339;SDS011;26044;50.864;20.658;2022-12-24T11:20:38;164.18;;;68.35;;
40339;SDS011;26044;50.864;20.658;2022-12-24T11:23:05;153.77;;;65.85;;
40339;SDS011;26044;50.864;20.658;2022-12-24T11:25:40;148.50;;;60.30;;
40339;SDS011;26044;50.864;20.658;2022-12-24T11:30:55;135.13;;;58.65;;
40339;SDS011;26044;50.864;20.658;2022-12-24T11:33:23;138.75;;;58.33;;
40339;SDS011;26044;50.864;20.658;2022-12-24T11:35:52;142.82;;;59.80;;
40339;SDS011;26044;50.864;20.658;2022-12-24T11:38:25;134.80;;;56.88;;
40339;SDS011;26044;50.864;20.658;2022-12-24T11:41:11;136.32;;;58.10;;
40339;SDS011;26044;50.864;20.658;2022-12-24T11:43:45;134.13;;;58.70;;
40339;SDS011;26044;50.864;20.658;2022-12-24T11:48:43;135.47;;;57.77;;
40339;SDS011;26044;50.864;20.658;2022-12-24T11:51:24;129.95;;;54.60;;
40339;SDS011;26044;50.864;20.658;2022-12-24T11:54:08;132.65;;;56.78;;
40339;SDS011;26044;50.864;20.658;2022-12-24T11:56:54;125.50;;;53.78;;
40339;SDS011;26044;50.864;20.658;2022-12-24T12:02:15;141.90;;;57.53;;
40339;SDS011;26044;50.864;20.658;2022-12-24T12:04:44;145.60;;;60.00;;
40339;SDS011;26044;50.864;20.658;2022-12-24T12:07:19;141.30;;;57.92;;
40339;SDS011;26044;50.864;20.658;2022-12-24T12:09:52;166.63;;;70.65;;
40339;SDS011;26044;50.864;20.658;2022-12-24T12:12:30;137.63;;;52.28;;
40339;SDS011;26044;50.864;20.658;2022-12-24T12:18:38;148.40;;;54.50;;
40339;SDS011;26044;50.864;20.658;2022-12-24T12:28:37;165.20;;;61.17;;
40339;SDS011;26044;50.864;20.658;2022-12-24T12:31:14;165.05;;;57.80;;
40339;SDS011;26044;50.864;20.658;2022-12-24T12:33:44;168.35;;;60.25;;
40339;SDS011;26044;50.864;20.658;2022-12-24T12:36:20;155.70;;;55.88;;
40339;SDS011;26044;50.864;20.658;2022-12-24T12:38:51;162.77;;;56.83;;
40339;SDS011;26044;50.864;20.658;2022-12-24T12:57:31;150.77;;;56.88;;
40339;SDS011;26044;50.864;20.658;2022-12-24T13:00:04;150.15;;;56.08;;
40339;SDS011;26044;50.864;20.658;2022-12-24T13:13:31;129.52;;;51.67;;
40339;SDS011;26044;50.864;20.658;2022-12-24T13:21:44;129.27;;;53.72;;
40339;SDS011;26044;50.864;20.658;2022-12-24T13:24:18;117.43;;;51.10;;
40339;SDS011;26044;50.864;20.658;2022-12-24T13:27:04;115.70;;;50.25;;
40339;SDS011;26044;50.864;20.658;2022-12-24T13:29:58;115.43;;;48.85;;
40339;SDS011;26044;50.864;20.658;2022-12-24T13:32:39;102.32;;;45.95;;
40339;SDS011;26044;50.864;20.658;2022-12-24T13:37:44;90.88;;;42.70;;
40339;SDS011;26044;50.864;20.658;2022-12-24T13:40:21;75.60;;;34.08;;
40339;SDS011;26044;50.864;20.658;2022-12-24T13:42:51;76.78;;;35.55;;
40339;SDS011;26044;50.864;20.658;2022-12-24T13:58:22;67.40;;;32.33;;
40339;SDS011;26044;50.864;20.658;2022-12-24T14:00:52;69.65;;;32.97;;
40339;SDS011;26044;50.864;20.658;2022-12-24T14:03:32;72.45;;;33.22;;
40339;SDS011;26044;50.864;20.658;2022-12-24T14:06:20;76.03;;;36.38;;
40339;SDS011;26044;50.864;20.658;2022-12-24T14:14:31;65.28;;;32.42;;
40339;SDS011;26044;50.864;20.658;2022-12-24T14:17:01;68.13;;;31.83;;
40339;SDS011;26044;50.864;20.658;2022-12-24T14:19:37;67.15;;;32.90;;
40339;SDS011;26044;50.864;20.658;2022-12-24T14:22:19;71.28;;;31.50;;
40339;SDS011;26044;50.864;20.658;2022-12-24T14:27:46;71.47;;;33.80;;
40339;SDS011;26044;50.864;20.658;2022-12-24T14:30:18;69.60;;;33.85;;
40339;SDS011;26044;50.864;20.658;2022-12-24T14:38:03;84.22;;;36.75;;
40339;SDS011;26044;50.864;20.658;2022-12-24T14:40:33;80.80;;;38.00;;
40339;SDS011;26044;50.864;20.658;2022-12-24T14:43:26;84.80;;;39.20;;
40339;SDS011;26044;50.864;20.658;2022-12-24T14:48:53;73.95;;;35.28;;
40339;SDS011;26044;50.864;20.658;2022-12-24T14:57:12;67.18;;;30.83;;
40339;SDS011;26044;50.864;20.658;2022-12-24T14:59:48;77.75;;;36.10;;
40339;SDS011;26044;50.864;20.658;2022-12-24T15:05:10;77.40;;;37.15;;
40339;SDS011;26044;50.864;20.658;2022-12-24T15:07:46;80.88;;;38.03;;
40339;SDS011;26044;50.864;20.658;2022-12-24T15:10:26;75.10;;;34.78;;
40339;SDS011;26044;50.864;20.658;2022-12-24T15:12:55;73.53;;;32.78;;
40339;SDS011;26044;50.864;20.658;2022-12-24T15:15:23;80.97;;;36.85;;
40339;SDS011;26044;50.864;20.658;2022-12-24T15:17:50;78.20;;;33.15;;
40339;SDS011;26044;50.864;20.658;2022-12-24T15:22:49;79.60;;;35.42;;
40339;SDS011;26044;50.864;20.658;2022-12-24T15:25:19;77.07;;;37.22;;
40339;SDS011;26044;50.864;20.658;2022-12-24T15:27:57;87.45;;;38.72;;
40339;SDS011;26044;50.864;20.658;2022-12-24T15:30:25;79.75;;;37.25;;
40339;SDS011;26044;50.864;20.658;2022-12-24T15:32:54;82.95;;;39.40;;
40339;SDS011;26044;50.864;20.658;2022-12-24T15:38:01;96.32;;;46.55;;
40339;SDS011;26044;50.864;20.658;2022-12-24T15:40:29;90.03;;;42.28;;
40339;SDS011;26044;50.864;20.658;2022-12-24T15:42:58;92.75;;;41.97;;
40339;SDS011;26044;50.864;20.658;2022-12-24T15:45:26;90.47;;;42.42;;
40339;SDS011;26044;50.864;20.658;2022-12-24T15:47:57;88.75;;;41.63;;
40339;SDS011;26044;50.864;20.658;2022-12-24T15:53:04;105.78;;;51.88;;
40339;SDS011;26044;50.864;20.658;2022-12-24T15:55:47;85.00;;;39.83;;
40339;SDS011;26044;50.864;20.658;2022-12-24T15:58:30;80.68;;;39.13;;
40339;SDS011;26044;50.864;20.658;2022-12-24T16:03:36;88.18;;;41.45;;
40339;SDS011;26044;50.864;20.658;2022-12-24T16:06:19;98.70;;;44.15;;
40339;SDS011;26044;50.864;20.658;2022-12-24T16:08:47;92.15;;;43.25;;
40339;SDS011;26044;50.864;20.658;2022-12-24T16:14:03;100.97;;;46.03;;
40339;SDS011;26044;50.864;20.658;2022-12-24T16:16:47;104.20;;;46.15;;
40339;SDS011;26044;50.864;20.658;2022-12-24T16:19:25;102.30;;;41.85;;
40339;SDS011;26044;50.864;20.658;2022-12-24T16:22:04;109.22;;;44.70;;
40339;SDS011;26044;50.864;20.658;2022-12-24T16:24:49;109.53;;;43.40;;
40339;SDS011;26044;50.864;20.658;2022-12-24T16:27:20;115.85;;;43.95;;
40339;SDS011;26044;50.864;20.658;2022-12-24T16:29:47;114.25;;;43.40;;
40339;SDS011;26044;50.864;20.658;2022-12-24T16:32:34;127.95;;;44.80;;
40339;SDS011;26044;50.864;20.658;2022-12-24T16:35:04;113.75;;;41.53;;
40339;SDS011;26044;50.864;20.658;2022-12-24T16:37:36;112.80;;;43.10;;
40339;SDS011;26044;50.864;20.658;2022-12-24T16:40:03;116.90;;;42.45;;
40339;SDS011;26044;50.864;20.658;2022-12-24T16:42:30;113.93;;;44.55;;
40339;SDS011;26044;50.864;20.658;2022-12-24T16:45:16;115.13;;;42.63;;
40339;SDS011;26044;50.864;20.658;2022-12-24T16:47:42;115.78;;;43.15;;
40339;SDS011;26044;50.864;20.658;2022-12-24T16:50:10;124.93;;;43.00;;
40339;SDS011;26044;50.864;20.658;2022-12-24T16:52:41;115.85;;;42.97;;
40339;SDS011;26044;50.864;20.658;2022-12-24T16:55:11;132.20;;;45.45;;
40339;SDS011;26044;50.864;20.658;2022-12-24T16:57:39;122.13;;;44.20;;
40339;SDS011;26044;50.864;20.658;2022-12-24T17:00:17;129.07;;;45.40;;
40339;SDS011;26044;50.864;20.658;2022-12-24T17:02:47;124.25;;;43.10;;
40339;SDS011;26044;50.864;20.658;2022-12-24T17:05:15;126.38;;;44.88;;
40339;SDS011;26044;50.864;20.658;2022-12-24T17:07:42;119.63;;;43.20;;
40339;SDS011;26044;50.864;20.658;2022-12-24T17:10:12;125.78;;;42.90;;
40339;SDS011;26044;50.864;20.658;2022-12-24T17:12:40;112.53;;;39.50;;